createdAt,value
2022-11-01T00:02:04.315Z,59.49
2022-11-01T00:04:04.277Z,59.41
2022-11-01T00:06:04.298Z,59.61
2022-11-01T00:09:04.278Z,59.52
2022-11-01T00:11:04.293Z,59.56
2022-11-01T00:14:04.275Z,59.89
2022-11-01T00:16:04.297Z,59.83
2022-11-01T00:18:04.406Z,59.47
2022-11-01T00:20:04.940Z,59.74
2022-11-01T00:23:04.659Z,59.53
2022-11-01T00:25:04.320Z,59.59
2022-11-01T00:28:04.515Z,59.61
2022-11-01T00:30:04.314Z,59.78
2022-11-01T00:32:04.321Z,59.62
2022-11-01T00:34:04.375Z,59.5
2022-11-01T00:37:04.347Z,59.57
2022-11-01T00:39:04.565Z,59.58
2022-11-01T00:42:04.318Z,59.57
2022-11-01T00:45:04.599Z,59.75
2022-11-01T00:47:04.387Z,59.67
2022-11-01T00:50:04.320Z,59.87
2022-11-01T00:53:04.300Z,59.8
2022-11-01T00:55:04.326Z,59.65
2022-11-01T00:58:04.630Z,59.69
2022-11-01T01:01:04.345Z,60.26
2022-11-01T01:04:04.317Z,59.93
2022-11-01T01:06:04.354Z,60.11
2022-11-01T01:09:04.320Z,59.97
2022-11-01T01:12:04.349Z,60.37
2022-11-01T01:15:05.507Z,60.2
2022-11-01T01:18:04.632Z,60.24
2022-11-01T01:20:04.301Z,60.23
2022-11-01T01:22:04.345Z,60.3
2022-11-01T01:24:04.284Z,60.29
2022-11-01T01:26:04.371Z,60.41
2022-11-01T01:29:04.329Z,60.33
2022-11-01T01:32:04.349Z,60.39
2022-11-01T01:35:04.339Z,60.27
2022-11-01T01:38:04.578Z,60.54
2022-11-01T01:40:04.303Z,60.4
2022-11-01T01:43:04.326Z,60.57
2022-11-01T01:46:04.290Z,60.76
2022-11-01T01:48:04.511Z,60.54
2022-11-01T01:51:04.274Z,60.77
2022-11-01T01:53:04.427Z,60.93
2022-11-01T01:56:04.302Z,60.96
2022-11-01T01:59:04.284Z,60.8
2022-11-01T02:02:04.311Z,60.76
2022-11-01T02:06:04.361Z,60.78
2022-11-01T02:09:04.379Z,60.91
2022-11-01T02:11:14.573Z,61.11
2022-11-01T02:14:24.879Z,60.79
2022-11-01T02:18:26.548Z,60.69
2022-11-01T02:20:50.498Z,61.19
2022-11-01T02:22:53.875Z,61.08
2022-11-01T02:25:39.524Z,61.32
2022-11-01T02:28:24.876Z,62.36
2022-11-01T02:31:25.895Z,62.56
2022-11-01T02:34:26.586Z,62.83
2022-11-01T02:37:24.879Z,62.07
2022-11-01T02:39:24.882Z,62.09
2022-11-01T02:41:24.964Z,62.07
2022-11-01T02:44:14.581Z,62.18
2022-11-01T02:46:14.586Z,64.01
2022-11-01T02:49:04.298Z,64.12
2022-11-01T02:52:04.298Z,63.38
2022-11-01T02:54:18.821Z,64.4
2022-11-01T02:57:04.312Z,66.86
2022-11-01T02:59:04.310Z,65.83
2022-11-01T03:01:04.363Z,67.24
2022-11-01T03:04:04.314Z,67.72
2022-11-01T03:07:04.278Z,66.76
2022-11-01T03:09:04.296Z,66.82
2022-11-01T03:12:04.306Z,66.4
2022-11-01T03:14:04.280Z,67.02
2022-11-01T03:16:04.302Z,65.93
2022-11-01T03:19:14.595Z,66.83
2022-11-01T03:22:04.323Z,66.88
2022-11-01T03:24:04.303Z,66.17
2022-11-01T03:27:04.296Z,66.59
2022-11-01T03:29:04.309Z,65.98
2022-11-01T03:31:04.346Z,65.92
2022-11-01T03:34:04.319Z,65.65
2022-11-01T03:36:04.323Z,66.08
2022-11-01T03:39:04.393Z,65.61
2022-11-01T03:42:04.300Z,65.75
2022-11-01T03:44:04.315Z,65.41
2022-11-01T03:47:04.315Z,65.44
2022-11-01T03:50:04.322Z,66.77
2022-11-01T03:52:04.342Z,67.52
2022-11-01T03:55:04.348Z,65.91
2022-11-01T03:58:04.721Z,65.79
2022-11-01T04:01:04.378Z,66.61
2022-11-01T04:03:14.602Z,66.01
2022-11-01T04:06:04.371Z,67.02
2022-11-01T04:09:04.288Z,65.58
2022-11-01T04:11:04.296Z,67.27
2022-11-01T04:13:14.584Z,66.33
2022-11-01T04:16:04.306Z,67.84
2022-11-01T04:18:04.397Z,66.04
2022-11-01T04:21:04.297Z,66.79
2022-11-01T04:23:04.841Z,68.03
2022-11-01T04:26:04.307Z,67.89
2022-11-01T04:29:04.299Z,69.26
2022-11-01T04:31:04.365Z,68.6
2022-11-01T04:34:04.292Z,68.8
2022-11-01T04:37:04.330Z,69.36
2022-11-01T04:40:04.327Z,68.52
2022-11-01T04:42:04.383Z,68.59
2022-11-01T04:45:04.295Z,69.15
2022-11-01T04:47:04.305Z,68.58
2022-11-01T04:50:04.292Z,69.39
2022-11-01T04:52:04.339Z,68.97
2022-11-01T04:55:04.364Z,69.35
2022-11-01T04:57:04.332Z,68.98
2022-11-01T05:00:04.322Z,69.01
2022-11-01T05:03:05.011Z,67.65
2022-11-01T05:06:04.338Z,68.59
2022-11-01T05:09:04.326Z,68.3
2022-11-01T05:11:04.346Z,69.05
2022-11-01T05:13:04.535Z,67.77
2022-11-01T05:16:19.974Z,68.28
2022-11-01T05:19:04.335Z,69.38
2022-11-01T05:21:04.360Z,69.11
2022-11-01T05:24:04.336Z,69.01
2022-11-01T05:26:04.339Z,68.3
2022-11-01T05:29:08.687Z,68.07
2022-11-01T05:32:04.404Z,68.33
2022-11-01T05:35:04.355Z,68.15
2022-11-01T05:37:04.336Z,67.77
2022-11-01T05:39:04.354Z,66.72
2022-11-01T05:42:04.337Z,67.56
2022-11-01T05:44:04.319Z,66.95
2022-11-01T05:47:04.342Z,67
2022-11-01T05:49:04.330Z,67.63
2022-11-01T05:52:04.325Z,67.16
2022-11-01T05:54:04.316Z,68.07
2022-11-01T05:57:04.317Z,67.79
2022-11-01T06:00:04.359Z,67.19
2022-11-01T06:03:04.716Z,66.99
2022-11-01T06:06:04.330Z,67.13
2022-11-01T06:08:04.353Z,67.9
2022-11-01T06:11:04.330Z,66.8
2022-11-01T06:13:04.659Z,67.83
2022-11-01T06:16:04.402Z,68.31
2022-11-01T06:18:04.780Z,68.09
2022-11-01T06:21:04.379Z,67.67
2022-11-01T06:23:04.410Z,67.85
2022-11-01T06:26:04.387Z,67.26
2022-11-01T06:28:04.535Z,67.29
2022-11-01T06:33:04.613Z,67.24
2022-11-01T06:35:04.391Z,66.86
2022-11-01T06:38:04.410Z,66.62
2022-11-01T06:42:04.368Z,67.63
2022-11-01T06:44:14.674Z,67.14
2022-11-01T06:47:45.541Z,66.61
2022-11-01T06:50:14.680Z,67.65
2022-11-01T06:52:14.699Z,67.69
2022-11-01T06:55:04.388Z,67.2
2022-11-01T06:58:04.753Z,67.62
2022-11-01T07:00:04.391Z,67.3
2022-11-01T07:02:04.520Z,67.55
2022-11-01T07:05:04.379Z,67.01
2022-11-01T07:07:04.407Z,66.78
2022-11-01T07:10:04.416Z,67.08
2022-11-01T07:13:04.393Z,67.11
2022-11-01T07:16:04.380Z,66.78
2022-11-01T07:19:04.423Z,67.41
2022-11-01T07:22:04.394Z,67.58
2022-11-01T07:25:04.378Z,67.85
2022-11-01T07:27:04.422Z,67.24
2022-11-01T07:30:04.385Z,67.2
2022-11-01T07:32:04.435Z,67.66
2022-11-01T07:35:04.387Z,67.55
2022-11-01T07:38:06.383Z,67.47
2022-11-01T07:40:04.430Z,67.66
2022-11-01T07:42:04.389Z,68.05
2022-11-01T07:44:04.399Z,68.02
2022-11-01T07:47:04.399Z,68.16
2022-11-01T07:49:04.396Z,67.95
2022-11-01T07:51:04.380Z,68.21
2022-11-01T07:53:04.418Z,68
2022-11-01T07:56:04.424Z,68.06
2022-11-01T08:00:04.420Z,68.61
2022-11-01T08:04:04.405Z,68.53
2022-11-01T08:06:14.752Z,68.65
2022-11-01T08:09:04.418Z,68.58
2022-11-01T08:12:04.413Z,69.5
2022-11-01T08:14:06.172Z,69.04
2022-11-01T08:16:04.405Z,69.29
2022-11-01T08:18:14.685Z,69.32
2022-11-01T08:21:04.415Z,69.36
2022-11-01T08:24:04.411Z,69.8
2022-11-01T08:27:04.488Z,70.19
2022-11-01T08:30:04.491Z,69.93
2022-11-01T08:33:04.790Z,70.24
2022-11-01T08:36:04.448Z,70.41
2022-11-01T08:39:04.461Z,70.11
2022-11-01T08:41:04.439Z,70.68
2022-11-01T08:44:04.469Z,70.94
2022-11-01T08:46:04.405Z,70.54
2022-11-01T08:48:04.423Z,71.14
2022-11-01T08:51:04.410Z,69.24
2022-11-01T08:54:04.406Z,68.79
2022-11-01T08:57:04.428Z,69.17
2022-11-01T09:00:04.437Z,68.96
2022-11-01T09:02:04.567Z,68.07
2022-11-01T09:04:04.452Z,67.92
2022-11-01T09:06:14.743Z,67.52
2022-11-01T09:09:04.426Z,67.3
2022-11-01T09:11:04.444Z,67.38
2022-11-01T09:14:04.416Z,67.25
2022-11-01T09:16:04.425Z,66.96
2022-11-01T09:19:04.416Z,66.92
2022-11-01T09:21:04.430Z,66.78
2022-11-01T09:24:04.420Z,66.42
2022-11-01T09:27:04.427Z,66.39
2022-11-01T09:29:04.427Z,65.34
2022-11-01T09:31:15.734Z,65.06
2022-11-01T09:34:04.422Z,63.71
2022-11-01T09:37:04.423Z,63.68
2022-11-01T09:40:04.436Z,63.11
2022-11-01T09:43:04.811Z,62.98
2022-11-01T09:46:04.428Z,62.12
2022-11-01T09:48:04.734Z,61.45
2022-11-01T09:50:04.428Z,61.47
2022-11-01T09:52:04.442Z,60.98
2022-11-01T09:55:07.032Z,60.26
2022-11-01T09:58:04.799Z,60.61
2022-11-01T10:00:04.450Z,60.24
2022-11-01T10:03:04.501Z,59.76
2022-11-01T10:06:04.466Z,59.66
2022-11-01T10:10:04.427Z,59.1
2022-11-01T10:12:14.732Z,58.93
2022-11-01T10:15:04.453Z,59.18
2022-11-01T10:17:04.432Z,58.55
2022-11-01T10:20:04.508Z,58.63
2022-11-01T10:22:04.470Z,59.01
2022-11-01T10:24:14.751Z,58.63
2022-11-01T10:27:04.438Z,58.52
2022-11-01T10:29:04.431Z,58.38
2022-11-01T10:32:04.423Z,58.24
2022-11-01T10:34:04.483Z,57.7
2022-11-01T10:37:04.439Z,56.93
2022-11-01T10:42:04.458Z,56.39
2022-11-01T10:45:04.438Z,55.22
2022-11-01T10:47:04.437Z,55.66
2022-11-01T10:49:04.466Z,54.68
2022-11-01T10:52:04.440Z,54.26
2022-11-01T10:54:04.465Z,53.07
2022-11-01T10:56:04.501Z,52.79
2022-11-01T10:59:04.461Z,51.2
2022-11-01T11:01:04.453Z,51.2
2022-11-01T11:03:04.505Z,51.8
2022-11-01T11:06:04.452Z,50.27
2022-11-01T11:08:04.709Z,49.86
2022-11-01T11:11:04.448Z,50.38
2022-11-01T11:14:04.425Z,49.75
2022-11-01T11:16:04.426Z,50.23
2022-11-01T11:18:04.477Z,50.21
2022-11-01T11:22:04.462Z,48.2
2022-11-01T11:24:14.763Z,48.73
2022-11-01T11:27:04.480Z,48.58
2022-11-01T11:30:04.442Z,48.46
2022-11-01T11:33:04.423Z,48.32
2022-11-01T11:36:04.451Z,47.67
2022-11-01T11:38:04.761Z,48.26
2022-11-01T11:40:04.449Z,47.23
2022-11-01T11:43:04.451Z,46.94
2022-11-01T11:45:04.465Z,46.25
2022-11-01T11:47:04.433Z,46.37
2022-11-01T11:50:04.468Z,45.76
2022-11-01T11:52:04.453Z,45.44
2022-11-01T11:55:04.523Z,44.82
2022-11-01T11:58:04.824Z,45.43
2022-11-01T12:00:04.488Z,44.55
2022-11-01T12:03:04.860Z,44.01
2022-11-01T12:06:04.453Z,44.14
2022-11-01T12:08:04.438Z,43.41
2022-11-01T12:11:04.454Z,42.39
2022-11-01T12:14:04.441Z,42.06
2022-11-01T12:16:04.476Z,42.26
2022-11-01T12:19:04.472Z,41.86
2022-11-01T12:21:04.455Z,42.26
2022-11-01T12:23:04.458Z,42.74
2022-11-01T12:25:04.462Z,42.06
2022-11-01T12:28:04.801Z,41.47
2022-11-01T12:30:04.466Z,40.87
2022-11-01T12:36:04.464Z,39.93
2022-11-01T12:38:14.789Z,40.64
2022-11-01T12:40:26.714Z,38.58
2022-11-01T12:43:26.721Z,38.17
2022-11-01T12:46:14.772Z,38.17
2022-11-01T12:49:04.487Z,38.12
2022-11-01T12:51:04.512Z,38.07
2022-11-01T12:54:04.487Z,37.88
2022-11-01T12:57:04.467Z,38.76
2022-11-01T12:59:04.477Z,38.21
2022-11-01T13:01:04.540Z,39.29
2022-11-01T13:04:04.508Z,37.9
2022-11-01T13:07:04.510Z,38.48
2022-11-01T13:10:04.589Z,39.28
2022-11-01T13:13:04.732Z,38.14
2022-11-01T13:16:04.508Z,37.36
2022-11-01T13:21:04.504Z,36.37
2022-11-01T13:23:14.762Z,36.36
2022-11-01T13:25:14.815Z,35.92
2022-11-01T13:28:04.461Z,35.98
2022-11-01T13:30:04.513Z,36.14
2022-11-01T13:33:04.690Z,35.93
2022-11-01T13:35:04.511Z,35.74
2022-11-01T13:37:04.508Z,35.79
2022-11-01T13:40:04.498Z,35.11
2022-11-01T13:43:04.953Z,35.2
2022-11-01T13:46:04.468Z,34.97
2022-11-01T13:48:04.730Z,36.64
2022-11-01T13:51:04.462Z,34.47
2022-11-01T13:53:04.477Z,34.8
2022-11-01T13:55:04.489Z,35.42
2022-11-01T13:58:04.772Z,34.86
2022-11-01T14:00:04.496Z,36.5
2022-11-01T14:03:04.467Z,35.38
2022-11-01T14:05:04.472Z,35.28
2022-11-01T14:07:05.053Z,36.38
2022-11-01T14:09:04.484Z,37.34
2022-11-01T14:11:04.493Z,36.5
2022-11-01T14:14:04.484Z,36.02
2022-11-01T14:17:04.485Z,34.96
2022-11-01T14:19:04.488Z,37.73
2022-11-01T14:22:04.482Z,35.04
2022-11-01T14:24:04.511Z,36.64
2022-11-01T14:27:04.487Z,34.48
2022-11-01T14:29:04.503Z,36.49
2022-11-01T14:31:04.573Z,36.62
2022-11-01T14:34:04.512Z,35.94
2022-11-01T14:36:12.373Z,35.45
2022-11-01T14:39:04.516Z,35.1
2022-11-01T14:42:04.503Z,35.77
2022-11-01T14:44:11.759Z,35.67
2022-11-01T14:46:14.793Z,34.18
2022-11-01T14:49:04.492Z,35.57
2022-11-01T14:51:04.515Z,34.75
2022-11-01T14:53:04.642Z,35.31
2022-11-01T14:55:04.523Z,34.33
2022-11-01T14:58:04.926Z,34.5
2022-11-01T15:00:14.863Z,34.72
2022-11-01T15:03:14.788Z,34.3
2022-11-01T15:07:04.530Z,35.92
2022-11-01T15:09:04.568Z,36.76
2022-11-01T15:12:04.544Z,35.15
2022-11-01T15:14:14.795Z,36.2
2022-11-01T15:17:04.518Z,35.04
2022-11-01T15:19:26.786Z,36.9
2022-11-01T15:22:14.794Z,34.7
2022-11-01T15:25:04.538Z,34.96
2022-11-01T15:27:04.529Z,37.73
2022-11-01T15:31:04.530Z,36.34
2022-11-01T15:33:25.054Z,36.52
2022-11-01T15:35:25.090Z,36.31
2022-11-01T15:39:04.526Z,37.63
2022-11-01T15:43:04.843Z,37.64
2022-11-01T15:45:25.101Z,37.82
2022-11-01T15:48:14.796Z,38.08
2022-11-01T15:51:04.521Z,38.55
2022-11-01T15:55:04.523Z,39.02
2022-11-01T15:57:14.806Z,39.01
2022-11-01T16:00:04.610Z,39.34
2022-11-01T16:03:04.847Z,39.73
2022-11-01T16:05:25.088Z,39.96
2022-11-01T16:08:04.540Z,40.19
2022-11-01T16:11:04.504Z,40.46
2022-11-01T16:13:04.943Z,41.27
2022-11-01T16:16:14.828Z,40.47
2022-11-01T16:20:04.582Z,41.19
2022-11-01T16:24:09.385Z,41.36
2022-11-01T16:26:14.809Z,41.6
2022-11-01T16:28:14.831Z,41.61
2022-11-01T16:31:04.538Z,42.05
2022-11-01T16:34:04.553Z,41.89
2022-11-01T16:36:04.588Z,42.16
2022-11-01T16:38:04.891Z,42.37
2022-11-01T16:41:04.521Z,42.58
2022-11-01T16:43:04.527Z,43.2
2022-11-01T16:46:04.548Z,43.95
2022-11-01T16:48:04.857Z,44.21
2022-11-01T16:50:04.567Z,44.35
2022-11-01T16:53:04.537Z,44.64
2022-11-01T16:55:04.582Z,44.84
2022-11-01T16:58:04.747Z,44.82
2022-11-01T17:00:04.607Z,44.96
2022-11-01T17:03:04.924Z,45.39
2022-11-01T17:06:04.543Z,45.84
2022-11-01T17:09:04.516Z,46.45
2022-11-01T17:11:04.519Z,45.68
2022-11-01T17:13:04.524Z,45.69
2022-11-01T17:16:04.589Z,46.13
2022-11-01T17:20:04.541Z,46.17
2022-11-01T17:23:04.574Z,46.84
2022-11-01T17:26:04.532Z,45.63
2022-11-01T17:29:04.572Z,46.44
2022-11-01T17:31:04.552Z,46.56
2022-11-01T17:34:04.530Z,46.77
2022-11-01T17:36:04.536Z,47.16
2022-11-01T17:39:04.556Z,47.91
2022-11-01T17:41:04.593Z,47.67
2022-11-01T17:44:04.539Z,47.38
2022-11-01T17:46:04.541Z,47.89
2022-11-01T17:49:04.577Z,47.67
2022-11-01T17:52:04.545Z,47.12
2022-11-01T17:55:04.537Z,47.16
2022-11-01T17:57:04.571Z,47.51
2022-11-01T18:00:04.576Z,46.55
2022-11-01T18:03:04.536Z,45.84
2022-11-01T18:05:04.588Z,45.39
2022-11-01T18:07:14.320Z,45.7
2022-11-01T18:11:04.615Z,44.46
2022-11-01T18:15:04.561Z,47.13
2022-11-01T18:17:14.853Z,46.31
2022-11-01T18:20:04.571Z,42.84
2022-11-01T18:22:05.577Z,45.2
2022-11-01T18:25:04.569Z,43.67
2022-11-01T18:28:04.919Z,45.08
2022-11-01T18:31:04.588Z,44.78
2022-11-01T18:33:04.582Z,45.74
2022-11-01T18:35:04.820Z,45.22
2022-11-01T18:38:04.845Z,45.01
2022-11-01T18:40:04.583Z,45.12
2022-11-01T18:43:04.933Z,45.58
2022-11-01T18:45:04.585Z,44.9
2022-11-01T18:48:04.878Z,44.7
2022-11-01T18:50:04.586Z,45.87
2022-11-01T18:52:04.604Z,44.76
2022-11-01T18:55:04.586Z,45.22
2022-11-01T18:57:04.577Z,46.01
2022-11-01T19:00:04.574Z,46.2
2022-11-01T19:02:04.805Z,45.55
2022-11-01T19:05:04.590Z,45.75
2022-11-01T19:08:10.716Z,46.43
2022-11-01T19:11:04.557Z,46.46
2022-11-01T19:13:04.589Z,46.13
2022-11-01T19:16:04.602Z,47.03
2022-11-01T19:19:04.596Z,47.09
2022-11-01T19:22:04.594Z,47.12
2022-11-01T19:24:08.397Z,47.33
2022-11-01T19:27:04.533Z,46.56
2022-11-01T19:29:04.582Z,46.32
2022-11-01T19:32:04.587Z,46.77
2022-11-01T19:35:04.545Z,47.02
2022-11-01T19:37:14.853Z,48.16
2022-11-01T19:40:04.576Z,47.36
2022-11-01T19:43:04.726Z,49.13
2022-11-01T19:45:04.582Z,47.69
2022-11-01T19:48:04.860Z,48.52
2022-11-01T19:50:14.832Z,48.04
2022-11-01T19:52:14.883Z,48.05
2022-11-01T19:55:04.548Z,49.53
2022-11-01T19:57:04.576Z,49.75
2022-11-01T19:59:14.863Z,49.66
2022-11-01T20:01:14.982Z,49.43
2022-11-01T20:04:35.443Z,49.33
2022-11-01T20:07:14.854Z,48.64
2022-11-01T20:11:04.574Z,49.42
2022-11-01T20:13:05.161Z,50.24
2022-11-01T20:16:14.896Z,49
2022-11-01T20:18:14.878Z,50
2022-11-01T20:21:04.592Z,50.23
2022-11-01T20:24:04.587Z,49.68
2022-11-01T20:27:04.596Z,50.28
2022-11-01T20:29:14.883Z,49.48
2022-11-01T20:32:04.572Z,49.96
2022-11-01T20:35:04.579Z,51.08
2022-11-01T20:38:04.564Z,49.71
2022-11-01T20:40:04.573Z,50.03
2022-11-01T20:43:05.035Z,50.62
2022-11-01T20:46:04.587Z,50.25
2022-11-01T20:48:04.589Z,50.7
2022-11-01T20:51:04.615Z,51.59
2022-11-01T20:54:04.583Z,51.41
2022-11-01T20:56:04.831Z,51.21
2022-11-01T20:59:04.630Z,51.06
2022-11-01T21:01:04.697Z,50.93
2022-11-01T21:04:04.605Z,50.68
2022-11-01T21:06:04.600Z,51.07
2022-11-01T21:09:04.588Z,51.2
2022-11-01T21:11:04.614Z,50.16
2022-11-01T21:14:04.605Z,51.43
2022-11-01T21:16:04.596Z,51.49
2022-11-01T21:18:04.614Z,50.75
2022-11-01T21:21:04.597Z,50.87
2022-11-01T21:23:04.945Z,51.16
2022-11-01T21:25:04.600Z,51.56
2022-11-01T21:27:04.611Z,51
2022-11-01T21:30:04.606Z,51.43
2022-11-01T21:33:04.616Z,50.99
2022-11-01T21:36:04.606Z,51.51
2022-11-01T21:38:04.829Z,50.75
2022-11-01T21:41:04.625Z,50.36
2022-11-01T21:43:04.639Z,51.62
2022-11-01T21:46:04.644Z,51.42
2022-11-01T21:49:04.609Z,51.18
2022-11-01T21:51:14.953Z,50.85
2022-11-01T21:54:04.795Z,51.48
2022-11-01T21:56:04.608Z,50.67
2022-11-01T21:59:04.617Z,51.57
2022-11-01T22:01:04.655Z,51.1
2022-11-01T22:04:04.576Z,51.92
2022-11-01T22:06:04.604Z,51.7
2022-11-01T22:08:04.595Z,50.6
2022-11-01T22:11:04.606Z,50.97
2022-11-01T22:14:04.566Z,51.22
2022-11-01T22:16:04.600Z,51.96
2022-11-01T22:19:04.627Z,52.21
2022-11-01T22:21:04.584Z,51.08
2022-11-01T22:24:04.617Z,52.1
2022-11-01T22:27:04.621Z,51.5
2022-11-01T22:30:04.583Z,52.34
2022-11-01T22:32:04.589Z,52.4
2022-11-01T22:35:04.629Z,51.53
2022-11-01T22:39:04.614Z,51.29
2022-11-01T22:41:04.626Z,52.01
2022-11-01T22:44:04.612Z,52.18
2022-11-01T22:47:04.635Z,52.09
2022-11-01T22:50:14.866Z,51.67
2022-11-01T22:54:04.899Z,52.18
2022-11-01T22:57:04.609Z,51.79
2022-11-01T22:59:04.644Z,51.15
2022-11-01T23:02:04.694Z,52.14
2022-11-01T23:05:04.627Z,51.53
2022-11-01T23:07:04.650Z,52.18
2022-11-01T23:10:04.647Z,52.44
2022-11-01T23:12:04.598Z,52.09
2022-11-01T23:15:04.641Z,52.29
2022-11-01T23:18:04.640Z,52.03
2022-11-01T23:21:04.591Z,52.34
2022-11-01T23:24:04.605Z,51.55
2022-11-01T23:27:04.590Z,52
2022-11-01T23:30:04.572Z,52.2
2022-11-01T23:32:04.641Z,52.06
2022-11-01T23:35:04.598Z,51.76
2022-11-01T23:37:04.625Z,51.92
2022-11-01T23:40:04.677Z,52.16
2022-11-01T23:43:04.801Z,52.17
2022-11-01T23:45:04.629Z,52
2022-11-01T23:47:04.634Z,52.31
2022-11-01T23:49:25.183Z,51.72
2022-11-01T23:52:14.888Z,52.19
2022-11-01T23:55:04.609Z,52.09
2022-11-01T23:59:04.634Z,52.31
